createdAt,value
2022-12-13T00:01:47.048Z,-5.90
2022-12-13T00:04:14.140Z,-5.90
2022-12-13T00:06:41.237Z,-5.90
2022-12-13T00:09:08.300Z,-5.90
2022-12-13T00:11:34.968Z,-5.90
2022-12-13T00:14:01.955Z,-6.00
2022-12-13T00:16:28.712Z,-6.00
2022-12-13T00:19:00.137Z,-6.00
2022-12-13T00:21:30.863Z,-6.00
2022-12-13T00:23:58.950Z,-6.10
2022-12-13T00:26:28.572Z,-6.00
2022-12-13T00:28:55.433Z,-6.00
2022-12-13T00:31:56.642Z,-6.10
2022-12-13T00:34:11.306Z,-6.10
2022-12-13T00:36:37.927Z,-6.10
2022-12-13T00:39:04.667Z,-6.00
2022-12-13T00:41:36.145Z,-6.10
2022-12-13T00:44:04.347Z,-6.10
2022-12-13T00:46:31.664Z,-6.00
2022-12-13T00:49:01.008Z,-6.10
2022-12-13T00:51:30.116Z,-6.10
2022-12-13T00:53:56.958Z,-6.10
2022-12-13T00:56:26.316Z,-6.10
2022-12-13T00:58:54.285Z,-6.20
2022-12-13T01:01:24.583Z,-6.20
2022-12-13T01:03:53.116Z,-6.20
2022-12-13T01:06:22.840Z,-6.20
2022-12-13T01:08:49.968Z,-6.20
2022-12-13T01:11:18.185Z,-6.20
2022-12-13T01:13:44.856Z,-6.20
2022-12-13T01:16:12.818Z,-6.20
2022-12-13T01:18:40.550Z,-6.20
2022-12-13T01:21:11.431Z,-6.20
2022-12-13T01:23:38.582Z,-6.20
2022-12-13T01:26:06.913Z,-6.20
2022-12-13T01:28:33.735Z,-6.20
2022-12-13T01:31:06.970Z,-6.20
2022-12-13T01:33:34.427Z,-6.20
2022-12-13T01:36:02.736Z,-6.20
2022-12-13T01:38:30.794Z,-6.20
2022-12-13T01:40:58.916Z,-6.20
2022-12-13T01:43:25.785Z,-6.20
2022-12-13T01:45:52.926Z,-6.20
2022-12-13T01:48:25.670Z,-6.20
2022-12-13T01:50:56.204Z,-6.20
2022-12-13T01:53:28.223Z,-6.20
2022-12-13T01:55:57.993Z,-6.20
2022-12-13T01:58:25.176Z,-6.30
2022-12-13T02:00:52.161Z,-6.30
2022-12-13T02:03:22.203Z,-6.30
2022-12-13T02:05:55.235Z,-6.30
2022-12-13T02:08:27.253Z,-6.30
2022-12-13T02:10:54.252Z,-6.30
2022-12-13T02:13:20.873Z,-6.30
2022-12-13T02:16:10.111Z,-6.30
2022-12-13T02:19:19.148Z,-6.30
2022-12-13T02:22:24.101Z,-6.30
2022-12-13T02:24:50.745Z,-6.30
2022-12-13T02:27:42.784Z,-6.40
2022-12-13T02:30:38.823Z,-6.40
2022-12-13T02:33:23.773Z,-6.40
2022-12-13T02:36:21.272Z,-6.40
2022-12-13T02:39:02.852Z,-6.40
2022-12-13T02:41:41.921Z,-6.40
2022-12-13T02:44:22.295Z,-6.40
2022-12-13T02:47:01.987Z,-6.40
2022-12-13T02:49:34.471Z,-6.40
2022-12-13T02:52:02.220Z,-6.50
2022-12-13T02:54:30.482Z,-6.50
2022-12-13T02:56:58.909Z,-6.50
2022-12-13T02:59:36.168Z,-6.50
2022-12-13T03:02:10.161Z,-6.50
2022-12-13T03:05:33.638Z,-6.50
2022-12-13T03:08:16.256Z,-6.50
2022-12-13T03:10:54.978Z,-6.50
2022-12-13T03:13:39.083Z,-6.50
2022-12-13T03:16:30.182Z,-6.50
2022-12-13T03:19:02.157Z,-6.60
2022-12-13T03:21:29.379Z,-6.60
2022-12-13T03:23:56.023Z,-6.60
2022-12-13T03:26:27.207Z,-6.60
2022-12-13T03:28:54.369Z,-6.60
2022-12-13T03:31:21.210Z,-6.70
2022-12-13T03:33:48.079Z,-6.60
2022-12-13T03:36:16.264Z,-6.70
2022-12-13T03:38:43.040Z,-6.70
2022-12-13T03:41:12.902Z,-6.70
2022-12-13T03:43:40.432Z,-6.70
2022-12-13T03:46:08.307Z,-6.70
2022-12-13T03:48:35.392Z,-6.70
2022-12-13T03:51:02.841Z,-6.70
2022-12-13T03:53:32.633Z,-6.70
2022-12-13T03:56:02.443Z,-6.70
2022-12-13T03:58:35.751Z,-6.70
2022-12-13T04:01:06.190Z,-6.70
2022-12-13T04:03:32.799Z,-6.80
2022-12-13T04:05:59.523Z,-6.80
2022-12-13T04:08:26.178Z,-6.80
2022-12-13T04:10:53.125Z,-6.80
2022-12-13T04:13:34.756Z,-6.80
2022-12-13T04:16:03.337Z,-6.80
2022-12-13T04:18:30.169Z,-6.80
2022-12-13T04:20:57.609Z,-6.80
2022-12-13T04:23:24.534Z,-6.90
2022-12-13T04:25:51.598Z,-6.90
2022-12-13T04:28:22.038Z,-6.90
2022-12-13T04:30:53.153Z,-6.90
2022-12-13T04:33:21.617Z,-6.90
2022-12-13T04:35:48.755Z,-6.90
2022-12-13T04:38:15.715Z,-6.90
2022-12-13T04:40:42.533Z,-6.90
2022-12-13T04:43:09.513Z,-6.90
2022-12-13T04:45:36.190Z,-6.90
2022-12-13T04:48:03.107Z,-6.90
2022-12-13T04:50:29.741Z,-6.90
2022-12-13T04:52:56.380Z,-6.90
2022-12-13T04:55:23.004Z,-6.90
2022-12-13T04:57:49.650Z,-6.90
2022-12-13T05:00:16.969Z,-6.90
2022-12-13T05:02:43.704Z,-6.90
2022-12-13T05:05:11.471Z,-6.90
2022-12-13T05:07:42.138Z,-6.90
2022-12-13T05:10:10.772Z,-6.90
2022-12-13T05:12:37.520Z,-6.90
2022-12-13T05:15:05.166Z,-6.90
2022-12-13T05:17:31.857Z,-6.90
2022-12-13T05:19:58.526Z,-6.90
2022-12-13T05:22:25.453Z,-6.90
2022-12-13T05:24:52.129Z,-6.90
2022-12-13T05:27:25.017Z,-6.90
2022-12-13T05:30:03.758Z,-6.90
2022-12-13T05:32:42.597Z,-6.90
2022-12-13T05:35:12.518Z,-6.90
2022-12-13T05:37:39.392Z,-7.00
2022-12-13T05:40:06.784Z,-7.00
2022-12-13T05:42:33.517Z,-6.90
2022-12-13T05:45:00.357Z,-6.90
2022-12-13T05:47:27.013Z,-6.90
2022-12-13T05:49:54.048Z,-6.90
2022-12-13T05:52:22.377Z,-6.90
2022-12-13T05:55:01.032Z,-6.90
2022-12-13T05:57:28.419Z,-6.90
2022-12-13T05:59:55.661Z,-6.90
2022-12-13T06:02:22.587Z,-6.90
2022-12-13T06:04:49.615Z,-7.00
2022-12-13T06:07:16.808Z,-7.00
2022-12-13T06:09:43.574Z,-7.00
2022-12-13T06:12:30.731Z,-7.00
2022-12-13T06:15:01.429Z,-7.00
2022-12-13T06:17:36.415Z,-7.00
2022-12-13T06:20:24.438Z,-7.10
2022-12-13T06:22:52.552Z,-7.00
2022-12-13T06:25:30.844Z,-7.10
2022-12-13T06:28:00.768Z,-7.10
2022-12-13T06:30:29.247Z,-7.10
2022-12-13T06:32:56.308Z,-7.10
2022-12-13T06:35:27.965Z,-7.10
2022-12-13T06:38:01.178Z,-7.10
2022-12-13T06:40:29.045Z,-7.10
2022-12-13T06:42:55.736Z,-7.10
2022-12-13T06:45:22.595Z,-7.10
2022-12-13T06:47:49.236Z,-7.10
2022-12-13T06:50:16.031Z,-7.10
2022-12-13T06:52:42.699Z,-7.10
2022-12-13T06:55:09.912Z,-7.10
2022-12-13T06:57:36.960Z,-7.10
2022-12-13T07:00:05.127Z,-7.00
2022-12-13T07:02:32.857Z,-7.00
2022-12-13T07:04:59.578Z,-7.00
2022-12-13T07:07:26.425Z,-7.00
2022-12-13T07:09:53.628Z,-7.00
2022-12-13T07:12:21.054Z,-6.90
2022-12-13T07:14:48.177Z,-7.00
2022-12-13T07:17:32.495Z,-6.90
2022-12-13T07:20:00.935Z,-6.90
2022-12-13T07:22:28.031Z,-6.90
2022-12-13T07:24:54.775Z,-6.90
2022-12-13T07:27:21.768Z,-6.80
2022-12-13T07:29:48.423Z,-6.70
2022-12-13T07:32:15.483Z,-6.70
2022-12-13T07:34:42.385Z,-6.70
2022-12-13T07:37:29.285Z,-6.70
2022-12-13T07:40:02.968Z,-6.70
2022-12-13T07:42:30.997Z,-6.70
2022-12-13T07:44:57.632Z,-6.60
2022-12-13T07:47:29.324Z,-6.60
2022-12-13T07:49:56.216Z,-6.50
2022-12-13T07:52:23.081Z,-6.50
2022-12-13T07:54:49.840Z,-6.50
2022-12-13T07:57:16.730Z,-6.40
2022-12-13T07:59:43.403Z,-6.40
2022-12-13T08:02:13.145Z,-6.30
2022-12-13T08:04:40.140Z,-6.30
2022-12-13T08:07:08.949Z,-6.20
2022-12-13T08:09:36.044Z,-6.10
2022-12-13T08:12:03.467Z,-6.10
2022-12-13T08:14:30.115Z,-6.10
2022-12-13T08:16:57.105Z,-6.00
2022-12-13T08:19:23.904Z,-5.90
2022-12-13T08:21:55.798Z,-6.00
2022-12-13T08:24:24.364Z,-5.90
2022-12-13T08:26:51.143Z,-5.80
2022-12-13T08:29:23.335Z,-5.80
2022-12-13T08:32:07.276Z,-5.80
2022-12-13T08:34:34.002Z,-5.70
2022-12-13T08:37:02.182Z,-5.70
2022-12-13T08:39:36.663Z,-5.60
2022-12-13T08:42:16.881Z,-5.50
2022-12-13T08:44:49.623Z,-5.50
2022-12-13T08:47:24.792Z,-5.40
2022-12-13T08:50:01.521Z,-5.30
2022-12-13T08:52:31.242Z,-5.30
2022-12-13T08:54:58.258Z,-5.20
2022-12-13T08:57:25.106Z,-5.10
2022-12-13T08:59:51.883Z,-5.00
2022-12-13T09:02:18.891Z,-4.90
2022-12-13T09:04:45.775Z,-4.80
2022-12-13T09:07:13.009Z,-4.70
2022-12-13T09:09:39.889Z,-4.70
2022-12-13T09:12:10.378Z,-4.70
2022-12-13T09:14:45.777Z,-4.50
2022-12-13T09:17:24.671Z,-4.50
2022-12-13T09:19:57.983Z,-4.40
2022-12-13T09:22:33.959Z,-4.40
2022-12-13T09:25:02.340Z,-4.30
2022-12-13T09:27:40.035Z,-4.20
2022-12-13T09:30:08.194Z,-4.10
2022-12-13T09:32:34.890Z,-4.00
2022-12-13T09:35:02.034Z,-3.90
2022-12-13T09:37:29.713Z,-4.00
2022-12-13T09:39:56.451Z,-3.90
2022-12-13T09:42:30.880Z,-3.90
2022-12-13T09:45:06.191Z,-3.80
2022-12-13T09:47:50.644Z,-3.70
2022-12-13T09:50:30.321Z,-3.70
2022-12-13T09:53:12.148Z,-3.70
2022-12-13T09:55:50.123Z,-3.80
2022-12-13T09:58:31.854Z,-3.90
2022-12-13T10:00:59.267Z,-3.90
2022-12-13T10:03:27.127Z,-3.90
2022-12-13T10:06:02.159Z,-3.80
2022-12-13T10:08:43.178Z,-3.60
2022-12-13T10:11:14.131Z,-3.60
2022-12-13T10:13:52.226Z,-3.60
2022-12-13T10:16:37.581Z,-3.50
2022-12-13T10:19:28.916Z,-3.50
2022-12-13T10:22:01.700Z,-3.50
2022-12-13T10:24:47.644Z,-3.50
2022-12-13T10:27:20.607Z,-3.30
2022-12-13T10:29:57.329Z,-3.40
2022-12-13T10:32:24.019Z,-3.20
2022-12-13T10:34:50.854Z,-3.10
2022-12-13T10:37:35.493Z,-3.10
2022-12-13T10:40:03.773Z,-2.90
2022-12-13T10:42:34.020Z,-2.80
2022-12-13T10:45:15.588Z,-2.80
2022-12-13T10:47:45.077Z,-2.70
2022-12-13T10:50:29.781Z,-2.90
2022-12-13T10:52:59.295Z,-2.90
2022-12-13T10:55:35.190Z,-2.90
2022-12-13T10:58:07.565Z,-2.90
2022-12-13T11:00:46.262Z,-2.80
2022-12-13T11:03:27.929Z,-2.70
2022-12-13T11:06:15.683Z,-2.50
2022-12-13T11:08:42.754Z,-2.60
2022-12-13T11:11:10.960Z,-2.60
2022-12-13T11:13:45.320Z,-2.50
2022-12-13T11:16:21.743Z,-2.40
2022-12-13T11:18:54.362Z,-2.30
2022-12-13T11:21:30.084Z,-2.30
2022-12-13T11:24:01.798Z,-2.20
2022-12-13T11:26:31.009Z,-2.20
2022-12-13T11:29:08.479Z,-2.20
2022-12-13T11:32:02.718Z,-2.00
2022-12-13T11:34:47.511Z,-2.00
2022-12-13T11:37:26.203Z,-2.00
2022-12-13T11:40:02.978Z,-2.10
2022-12-13T11:42:32.913Z,-1.90
2022-12-13T11:45:22.920Z,-1.80
2022-12-13T11:48:20.713Z,-1.70
2022-12-13T11:50:53.537Z,-1.70
2022-12-13T11:53:54.924Z,-1.70
2022-12-13T11:56:25.401Z,-1.70
2022-12-13T11:59:31.997Z,-1.70
2022-12-13T12:02:22.198Z,-1.70
2022-12-13T12:05:00.394Z,-1.80
2022-12-13T12:07:58.777Z,-1.80
2022-12-13T12:10:38.514Z,-1.70
2022-12-13T12:13:17.102Z,-1.50
2022-12-13T12:15:57.291Z,-1.40
2022-12-13T12:18:24.478Z,-1.40
2022-12-13T12:21:09.373Z,-1.40
2022-12-13T12:23:59.270Z,-1.40
2022-12-13T12:27:04.090Z,-1.30
2022-12-13T12:29:59.714Z,-1.40
2022-12-13T12:32:26.363Z,-1.60
2022-12-13T12:35:16.327Z,-1.60
2022-12-13T12:38:01.914Z,-1.60
2022-12-13T12:41:15.609Z,-1.60
2022-12-13T12:43:43.452Z,-1.50
2022-12-13T12:46:47.163Z,-1.60
2022-12-13T12:49:29.910Z,-1.60
2022-12-13T12:52:29.498Z,-1.60
2022-12-13T12:55:28.346Z,-1.60
2022-12-13T12:58:10.896Z,-1.50
2022-12-13T13:01:00.476Z,-1.50
2022-12-13T13:03:30.057Z,-1.40
2022-12-13T13:06:25.181Z,-1.40
2022-12-13T13:09:06.369Z,-1.50
2022-12-13T13:11:43.302Z,-1.40
2022-12-13T13:14:45.876Z,-1.30
2022-12-13T13:17:24.637Z,-1.20
2022-12-13T13:20:14.077Z,-1.20
2022-12-13T13:22:44.463Z,-1.10
2022-12-13T13:25:25.841Z,-1.10
2022-12-13T13:28:00.537Z,-1.10
2022-12-13T13:30:27.359Z,-1.10
2022-12-13T13:32:58.616Z,-1.10
2022-12-13T13:35:36.078Z,-1.20
2022-12-13T13:38:27.551Z,-1.20
2022-12-13T13:40:54.514Z,-1.40
2022-12-13T13:43:32.805Z,-1.30
2022-12-13T13:46:02.572Z,-1.40
2022-12-13T13:48:41.279Z,-1.40
2022-12-13T13:51:26.898Z,-1.30
2022-12-13T13:54:18.653Z,-1.30
2022-12-13T13:56:50.222Z,-1.10
2022-12-13T13:59:29.334Z,-1.30
2022-12-13T14:02:05.277Z,-1.20
2022-12-13T14:04:49.845Z,-1.20
2022-12-13T14:07:27.160Z,-1.30
2022-12-13T14:10:30.625Z,-1.30
2022-12-13T14:13:25.623Z,-1.30
2022-12-13T14:16:02.123Z,-1.30
2022-12-13T14:19:15.988Z,-1.40
2022-12-13T14:21:51.666Z,-1.30
2022-12-13T14:24:55.554Z,-1.30
2022-12-13T14:27:24.938Z,-1.50
2022-12-13T14:29:58.497Z,-1.50
2022-12-13T14:32:29.086Z,-1.60
2022-12-13T14:34:57.471Z,-1.60
2022-12-13T14:37:37.785Z,-1.50
2022-12-13T14:40:24.503Z,-1.50
2022-12-13T14:42:57.519Z,-1.60
2022-12-13T14:45:29.441Z,-1.70
2022-12-13T14:47:58.102Z,-1.80
2022-12-13T14:50:26.981Z,-1.80
2022-12-13T14:52:55.864Z,-1.80
2022-12-13T14:55:40.840Z,-1.80
2022-12-13T14:58:20.825Z,-1.90
2022-12-13T15:00:47.546Z,-1.90
2022-12-13T15:03:26.349Z,-1.90
2022-12-13T15:05:56.659Z,-1.90
2022-12-13T15:08:24.150Z,-1.90
2022-12-13T15:10:59.510Z,-2.00
2022-12-13T15:13:39.956Z,-2.00
2022-12-13T15:16:18.178Z,-2.10
2022-12-13T15:18:50.833Z,-2.10
2022-12-13T15:21:25.051Z,-2.10
2022-12-13T15:23:53.562Z,-2.20
2022-12-13T15:26:29.336Z,-2.20
2022-12-13T15:28:59.760Z,-2.30
2022-12-13T15:31:27.862Z,-2.40
2022-12-13T15:34:01.087Z,-2.40
2022-12-13T15:36:29.080Z,-2.40
2022-12-13T15:38:55.741Z,-2.50
2022-12-13T15:41:32.610Z,-2.50
2022-12-13T15:44:07.598Z,-2.60
2022-12-13T15:46:38.246Z,-2.60
2022-12-13T15:49:12.888Z,-2.60
2022-12-13T15:52:03.050Z,-2.70
2022-12-13T15:54:30.395Z,-2.70
2022-12-13T15:57:21.541Z,-2.70
2022-12-13T15:59:48.749Z,-2.70
2022-12-13T16:02:23.264Z,-2.80
2022-12-13T16:04:50.440Z,-2.80
2022-12-13T16:07:26.001Z,-2.80
2022-12-13T16:09:54.453Z,-2.70
2022-12-13T16:12:26.169Z,-2.70
2022-12-13T16:14:52.977Z,-2.80
2022-12-13T16:17:29.427Z,-2.80
2022-12-13T16:20:01.125Z,-2.80
2022-12-13T16:22:30.203Z,-2.80
2022-12-13T16:24:56.873Z,-2.80
2022-12-13T16:27:24.994Z,-2.70
2022-12-13T16:29:51.691Z,-2.80
2022-12-13T16:32:18.554Z,-2.70
2022-12-13T16:34:45.201Z,-2.70
2022-12-13T16:37:26.545Z,-2.70
2022-12-13T16:39:54.190Z,-2.70
2022-12-13T16:42:21.197Z,-2.80
2022-12-13T16:45:01.612Z,-2.80
2022-12-13T16:47:46.397Z,-2.70
2022-12-13T16:50:17.832Z,-2.80
2022-12-13T16:52:44.510Z,-2.80
2022-12-13T16:55:12.377Z,-2.80
2022-12-13T16:57:39.567Z,-2.80
2022-12-13T17:00:09.943Z,-2.80
2022-12-13T17:02:37.954Z,-2.70
2022-12-13T17:05:05.913Z,-2.70
2022-12-13T17:07:32.741Z,-2.70
2022-12-13T17:09:59.963Z,-2.80
2022-12-13T17:12:26.651Z,-2.70
2022-12-13T17:14:54.251Z,-2.80
2022-12-13T17:17:21.078Z,-2.80
2022-12-13T17:19:47.749Z,-2.90
2022-12-13T17:22:14.411Z,-2.80
2022-12-13T17:24:41.190Z,-2.80
2022-12-13T17:27:07.991Z,-2.80
2022-12-13T17:29:34.772Z,-2.80
2022-12-13T17:32:01.567Z,-2.80
2022-12-13T17:34:28.265Z,-2.80
2022-12-13T17:36:55.010Z,-2.80
2022-12-13T17:39:21.742Z,-2.90
2022-12-13T17:41:54.967Z,-2.80
2022-12-13T17:44:23.382Z,-2.80
2022-12-13T17:46:54.481Z,-2.80
2022-12-13T17:49:22.478Z,-2.80
2022-12-13T17:51:51.576Z,-2.80
2022-12-13T17:54:19.524Z,-2.80
2022-12-13T17:56:46.750Z,-2.80
2022-12-13T17:59:15.292Z,-2.80
2022-12-13T18:01:45.704Z,-2.90
2022-12-13T18:04:12.763Z,-2.90
2022-12-13T18:06:40.343Z,-2.90
2022-12-13T18:09:08.423Z,-2.90
2022-12-13T18:11:35.771Z,-2.90
2022-12-13T18:14:04.413Z,-2.80
2022-12-13T18:16:36.871Z,-2.80
2022-12-13T18:19:07.468Z,-2.80
2022-12-13T18:21:35.501Z,-2.80
2022-12-13T18:24:02.455Z,-2.90
2022-12-13T18:26:29.193Z,-2.90
2022-12-13T18:28:55.885Z,-2.90
2022-12-13T18:31:24.604Z,-2.90
2022-12-13T18:33:53.500Z,-2.90
2022-12-13T18:36:22.742Z,-2.90
2022-12-13T18:38:49.794Z,-2.90
2022-12-13T18:41:22.544Z,-2.80
2022-12-13T18:43:55.383Z,-2.80
2022-12-13T18:46:22.176Z,-2.80
2022-12-13T18:48:49.117Z,-2.80
2022-12-13T18:51:15.905Z,-2.80
2022-12-13T18:53:42.560Z,-2.80
2022-12-13T18:56:18.184Z,-2.80
2022-12-13T18:58:46.673Z,-2.80
2022-12-13T19:01:14.095Z,-2.80
2022-12-13T19:03:43.831Z,-2.80
2022-12-13T19:06:16.635Z,-2.80
2022-12-13T19:08:43.623Z,-2.90
2022-12-13T19:11:10.973Z,-2.90
2022-12-13T19:13:37.673Z,-2.90
2022-12-13T19:16:08.223Z,-3.00
2022-12-13T19:18:35.797Z,-3.10
2022-12-13T19:21:02.629Z,-3.10
2022-12-13T19:23:29.842Z,-3.10
2022-12-13T19:25:56.749Z,-3.10
2022-12-13T19:28:23.497Z,-3.10
2022-12-13T19:30:50.355Z,-3.10
2022-12-13T19:33:17.389Z,-3.10
2022-12-13T19:35:46.898Z,-3.10
2022-12-13T19:38:13.739Z,-3.00
2022-12-13T19:40:42.226Z,-3.10
2022-12-13T19:43:10.264Z,-3.10
2022-12-13T19:45:37.241Z,-3.00
2022-12-13T19:48:04.463Z,-3.00
2022-12-13T19:50:31.264Z,-3.00
2022-12-13T19:52:57.923Z,-3.00
2022-12-13T19:55:24.634Z,-3.00
2022-12-13T19:57:51.426Z,-3.00
2022-12-13T20:00:18.157Z,-3.00
2022-12-13T20:02:45.030Z,-3.00
2022-12-13T20:05:11.776Z,-3.10
2022-12-13T20:07:38.491Z,-3.10
2022-12-13T20:10:06.261Z,-3.10
2022-12-13T20:12:37.193Z,-3.10
2022-12-13T20:15:08.398Z,-3.20
2022-12-13T20:17:35.973Z,-3.10
2022-12-13T20:20:04.133Z,-3.20
2022-12-13T20:22:31.967Z,-3.20
2022-12-13T20:24:58.679Z,-3.10
2022-12-13T20:27:25.802Z,-3.10
2022-12-13T20:29:52.654Z,-3.10
2022-12-13T20:32:20.994Z,-3.20
2022-12-13T20:34:53.087Z,-3.20
2022-12-13T20:37:21.594Z,-3.30
2022-12-13T20:39:48.234Z,-3.30
2022-12-13T20:42:15.007Z,-3.30
2022-12-13T20:44:41.660Z,-3.30
2022-12-13T20:47:08.421Z,-3.40
2022-12-13T20:49:35.216Z,-3.40
2022-12-13T20:52:02.059Z,-3.30
2022-12-13T20:54:28.837Z,-3.20
2022-12-13T20:56:55.568Z,-3.20
2022-12-13T20:59:22.288Z,-3.20
2022-12-13T21:01:49.431Z,-3.20
2022-12-13T21:04:16.475Z,-3.20
2022-12-13T21:06:43.154Z,-3.20
2022-12-13T21:09:11.288Z,-3.10
2022-12-13T21:11:48.159Z,-3.10
2022-12-13T21:14:21.785Z,-3.10
2022-12-13T21:16:51.593Z,-3.20
2022-12-13T21:19:26.899Z,-3.10
2022-12-13T21:21:55.054Z,-3.00
2022-12-13T21:24:24.354Z,-3.00
2022-12-13T21:26:51.530Z,-3.00
2022-12-13T21:29:18.758Z,-3.00
2022-12-13T21:31:48.849Z,-3.00
2022-12-13T21:34:17.788Z,-3.00
2022-12-13T21:36:46.968Z,-3.10
2022-12-13T21:39:18.974Z,-3.00
2022-12-13T21:41:45.780Z,-3.00
2022-12-13T21:44:15.120Z,-3.00
2022-12-13T21:49:29.287Z,-2.90
2022-12-13T21:51:55.981Z,-3.00
2022-12-13T21:54:22.750Z,-3.00
2022-12-13T21:57:08.248Z,-2.90
2022-12-13T21:59:35.073Z,-2.90
2022-12-13T22:02:13.053Z,-2.90
2022-12-13T22:05:00.969Z,-2.90
2022-12-13T22:07:32.965Z,-2.90
2022-12-13T22:10:00.822Z,-2.90
2022-12-13T22:12:33.613Z,-2.90
2022-12-13T22:15:00.521Z,-2.80
2022-12-13T22:17:34.716Z,-2.80
2022-12-13T22:20:03.759Z,-2.80
2022-12-13T22:22:30.476Z,-2.70
2022-12-13T22:24:57.202Z,-2.70
2022-12-13T22:27:25.130Z,-2.70
2022-12-13T22:29:53.508Z,-2.70
2022-12-13T22:32:20.983Z,-2.70
2022-12-13T22:34:47.751Z,-2.70
2022-12-13T22:37:15.352Z,-2.70
2022-12-13T22:52:16.296Z,-2.90
2022-12-13T22:54:42.941Z,-2.90
2022-12-13T22:57:09.681Z,-2.90
2022-12-13T22:59:36.487Z,-2.90
2022-12-13T23:02:03.886Z,-2.90
2022-12-13T23:04:31.927Z,-2.80
2022-12-13T23:06:58.773Z,-2.80
2022-12-13T23:09:25.505Z,-2.80
2022-12-13T23:12:10.899Z,-2.70
2022-12-13T23:14:37.836Z,-2.60
2022-12-13T23:17:04.831Z,-2.60
2022-12-13T23:19:53.418Z,-2.70
2022-12-13T23:22:22.583Z,-2.60
2022-12-13T23:24:50.366Z,-2.60
2022-12-13T23:27:17.884Z,-2.60
2022-12-13T23:29:44.746Z,-2.60
2022-12-13T23:32:12.114Z,-2.60
2022-12-13T23:34:38.838Z,-2.60
2022-12-13T23:37:05.511Z,-2.50
2022-12-13T23:39:32.190Z,-2.50
2022-12-13T23:41:58.925Z,-2.50
2022-12-13T23:44:25.547Z,-2.50
2022-12-13T23:46:52.219Z,-2.40
2022-12-13T23:49:19.487Z,-2.40
2022-12-13T23:51:46.457Z,-2.40
2022-12-13T23:54:16.524Z,-2.40
2022-12-13T23:56:43.482Z,-2.40
2022-12-13T23:59:10.461Z,-2.40
